Time;durP1;ratioP1;P1;durP2;ratioP2;P2;SDS_P1;SDS_P2;PMS_P1;PMS_P2;Temp;Humidity;BMP_temperature;BMP_pressure;BME280_temperature;BME280_humidity;BME280_pressure;Samples;Min_cycle;Max_cycle;Signal;HPM_P1;HPM_P2
2021/11/13 00:02:24;;;;;;;77.13;46.23;;;11.90;99.90;;;;;;5064986;28;20415;-75
2021/11/13 00:04:50;;;;;;;80.55;47.35;;;11.90;99.90;;;;;;5080074;28;20452;-74
2021/11/13 00:07:17;;;;;;;87.17;49.53;;;11.80;99.90;;;;;;5080249;28;20494;-74
2021/11/13 00:09:42;;;;;;;86.28;49.10;;;11.80;99.90;;;;;;5099276;28;20415;-74
2021/11/13 00:12:08;;;;;;;118.90;51.23;;;11.90;99.90;;;;;;5078646;28;20404;-74
2021/11/13 00:14:34;;;;;;;88.63;49.92;;;11.90;99.90;;;;;;5077057;28;20939;-73
2021/11/13 00:17:00;;;;;;;91.00;50.67;;;11.90;99.90;;;;;;5091019;28;20940;-74
2021/11/13 00:19:29;;;;;;;96.80;51.40;;;11.80;99.90;;;;;;5097015;28;20411;-73
2021/11/13 00:21:55;;;;;;;93.50;50.85;;;11.80;99.90;;;;;;5082798;28;20412;-73
2021/11/13 00:24:20;;;;;;;98.37;51.17;;;11.80;99.90;;;;;;5077100;28;20408;-73
2021/11/13 00:26:47;;;;;;;109.15;54.90;;;11.80;99.90;;;;;;5076798;28;20403;-73
2021/11/13 00:29:13;;;;;;;95.38;52.15;;;11.80;99.90;;;;;;5100673;28;20425;-73
2021/11/13 00:31:39;;;;;;;100.70;53.15;;;11.80;99.90;;;;;;5087461;28;20412;-73
2021/11/13 00:34:05;;;;;;;104.40;54.23;;;11.90;99.90;;;;;;5082070;28;20914;-74
2021/11/13 00:36:30;;;;;;;99.88;53.88;;;11.80;99.90;;;;;;5080915;28;20408;-74
2021/11/13 00:38:56;;;;;;;100.03;54.63;;;11.90;99.90;;;;;;5098628;28;20491;-74
2021/11/13 00:41:22;;;;;;;100.90;55.47;;;11.90;99.90;;;;;;5101130;28;20405;-73
2021/11/13 00:43:48;;;;;;;99.10;55.90;;;11.90;99.90;;;;;;5105609;28;20924;-74
2021/11/13 00:46:14;;;;;;;99.30;55.13;;;11.90;99.90;;;;;;5101462;28;20412;-74
2021/11/13 00:48:40;;;;;;;98.70;53.60;;;11.90;99.90;;;;;;5103250;28;20419;-74
2021/11/13 00:51:06;;;;;;;102.35;54.83;;;11.90;99.90;;;;;;5076759;28;20400;-74
2021/11/13 00:53:32;;;;;;;94.32;53.38;;;11.90;99.90;;;;;;5098473;28;20758;-73
2021/11/13 00:55:59;;;;;;;99.20;54.10;;;12.00;99.90;;;;;;5105687;28;20433;-76
2021/11/13 00:58:26;;;;;;;110.75;53.75;;;12.00;99.90;;;;;;5105282;28;20503;-74
2021/11/13 01:00:52;;;;;;;99.15;53.25;;;12.00;99.90;;;;;;5097129;28;20779;-73
2021/11/13 01:03:18;;;;;;;92.57;52.33;;;12.00;99.90;;;;;;5097226;28;20420;-73
2021/11/13 01:05:44;;;;;;;93.17;52.17;;;12.10;99.90;;;;;;5080824;28;20460;-74
2021/11/13 01:08:10;;;;;;;87.47;51.00;;;12.10;99.90;;;;;;5097570;28;20960;-73
2021/11/13 01:10:37;;;;;;;88.38;49.92;;;12.10;99.90;;;;;;5083100;28;20479;-75
2021/11/13 01:13:03;;;;;;;81.63;48.20;;;12.10;99.90;;;;;;5076282;27;20422;-75
2021/11/13 01:15:29;;;;;;;82.15;46.95;;;12.10;99.90;;;;;;5103203;28;20416;-76
2021/11/13 01:17:56;;;;;;;80.95;45.03;;;12.10;99.90;;;;;;5097909;28;20403;-74
2021/11/13 01:20:24;;;;;;;77.57;42.50;;;12.20;99.90;;;;;;5100735;28;20531;-74
2021/11/13 01:22:51;;;;;;;79.13;41.90;;;12.20;99.90;;;;;;5086124;28;20471;-75
2021/11/13 01:25:17;;;;;;;80.97;43.28;;;12.20;99.90;;;;;;5077776;28;20404;-73
2021/11/13 01:27:43;;;;;;;78.33;42.10;;;12.20;99.90;;;;;;5098742;28;20417;-75
2021/11/13 01:30:13;;;;;;;73.57;38.35;;;12.30;99.90;;;;;;5079269;28;20438;-74
2021/11/13 01:32:39;;;;;;;71.40;36.22;;;12.30;99.90;;;;;;5090534;28;20486;-74
2021/11/13 01:35:06;;;;;;;74.75;34.92;;;12.30;99.90;;;;;;5098505;28;20414;-74
2021/11/13 01:37:34;;;;;;;73.55;33.85;;;12.40;99.90;;;;;;5084172;28;20404;-75
2021/11/13 01:40:00;;;;;;;68.53;31.95;;;12.40;99.90;;;;;;5100232;28;20467;-75
2021/11/13 01:42:31;;;;;;;67.32;29.30;;;12.50;99.90;;;;;;5098456;28;21965;-74
2021/11/13 01:44:58;;;;;;;64.88;26.35;;;12.50;99.90;;;;;;5101131;28;20420;-75
2021/11/13 01:47:24;;;;;;;60.35;24.95;;;12.50;99.90;;;;;;5099332;28;20412;-74
2021/11/13 01:49:50;;;;;;;68.45;24.65;;;12.60;99.90;;;;;;5099901;28;20415;-75
2021/11/13 01:52:16;;;;;;;64.18;23.85;;;12.60;99.90;;;;;;5097536;28;20421;-76
2021/11/13 01:54:44;;;;;;;71.90;21.38;;;12.60;99.90;;;;;;5101147;28;20918;-74
2021/11/13 01:57:19;;;;;;;57.25;16.33;;;12.70;99.90;;;;;;5077936;28;20926;-76
2021/11/13 01:59:46;;;;;;;44.78;9.15;;;12.70;99.90;;;;;;5080898;28;20299;-74
2021/11/13 02:02:11;;;;;;;53.45;6.28;;;12.40;99.90;;;;;;5098495;28;20701;-73
2021/11/13 02:04:37;;;;;;;44.55;5.43;;;12.20;99.90;;;;;;5080312;28;20213;-75
2021/11/13 02:07:03;;;;;;;41.88;5.60;;;12.00;99.90;;;;;;5073842;28;20224;-75
2021/11/13 02:09:30;;;;;;;44.55;5.93;;;11.90;99.90;;;;;;5095564;28;20176;-71
2021/11/13 02:11:56;;;;;;;37.50;5.15;;;11.80;99.90;;;;;;5101721;28;20540;-73
2021/11/13 02:14:22;;;;;;;36.85;5.10;;;11.80;99.90;;;;;;5101270;28;20554;-74
2021/11/13 02:16:47;;;;;;;39.88;4.60;;;11.80;99.90;;;;;;5080142;28;20189;-74
2021/11/13 02:19:13;;;;;;;44.42;4.90;;;11.70;99.90;;;;;;5087543;28;20743;-74
2021/11/13 02:21:39;;;;;;;39.83;4.22;;;11.70;99.90;;;;;;5100772;28;20204;-73
2021/11/13 02:24:05;;;;;;;36.55;4.38;;;11.70;99.90;;;;;;5081506;28;20235;-74
2021/11/13 02:26:30;;;;;;;38.30;4.78;;;11.70;99.90;;;;;;5097646;28;20212;-74
2021/11/13 02:28:56;;;;;;;33.03;4.78;;;11.70;99.90;;;;;;5105618;28;20363;-74
2021/11/13 02:31:32;;;;;;;35.10;4.20;;;11.70;99.90;;;;;;5070883;28;20182;-73
2021/11/13 02:33:58;;;;;;;37.08;5.05;;;11.70;99.90;;;;;;5075219;28;20672;-74
2021/11/13 02:36:24;;;;;;;49.45;6.40;;;11.70;99.90;;;;;;5074458;28;20185;-73
2021/11/13 02:38:54;;;;;;;42.22;5.18;;;11.70;99.90;;;;;;5086322;28;20196;-74
2021/11/13 02:41:22;;;;;;;48.30;5.80;;;11.70;99.90;;;;;;5082479;28;20225;-74
2021/11/13 02:43:48;;;;;;;50.28;6.00;;;11.70;99.90;;;;;;5084892;28;20275;-73
2021/11/13 02:46:15;;;;;;;42.63;5.18;;;11.70;99.90;;;;;;5102999;28;20204;-75
2021/11/13 02:48:41;;;;;;;36.88;5.18;;;11.70;99.90;;;;;;5103959;28;20652;-74
2021/11/13 02:51:09;;;;;;;56.00;5.70;;;11.80;99.90;;;;;;5073370;28;20189;-75
2021/11/13 02:53:34;;;;;;;42.75;5.35;;;11.80;99.90;;;;;;5100301;28;20220;-75
2021/11/13 02:56:04;;;;;;;41.72;5.05;;;11.80;99.90;;;;;;5102789;28;20213;-74
2021/11/13 02:58:30;;;;;;;46.53;5.28;;;11.80;99.90;;;;;;5068773;28;20186;-75
2021/11/13 03:01:03;;;;;;;38.03;5.50;;;11.80;99.90;;;;;;5082626;28;20189;-74
2021/11/13 03:03:29;;;;;;;35.58;5.50;;;11.80;99.90;;;;;;5102614;28;20188;-75
2021/11/13 03:05:58;;;;;;;35.90;5.40;;;11.90;99.90;;;;;;5079196;28;20672;-74
2021/11/13 03:08:30;;;;;;;34.78;5.10;;;11.80;99.90;;;;;;5100899;28;20560;-75
2021/11/13 03:10:57;;;;;;;43.10;5.35;;;11.90;99.90;;;;;;5102578;28;20184;-74
2021/11/13 03:13:23;;;;;;;27.73;4.82;;;11.80;99.90;;;;;;5097809;28;20193;-75
2021/11/13 03:15:50;;;;;;;25.58;4.50;;;11.90;99.90;;;;;;5105332;28;20927;-75
2021/11/13 03:18:16;;;;;;;32.05;5.10;;;11.90;99.90;;;;;;5086102;28;20195;-75
2021/11/13 03:20:43;;;;;;;31.07;4.97;;;11.90;99.90;;;;;;5101578;28;20394;-74
2021/11/13 03:23:09;;;;;;;38.40;4.88;;;12.30;99.90;;;;;;5087632;28;20521;-75
2021/11/13 03:25:39;;;;;;;35.20;5.07;;;12.60;99.90;;;;;;5098837;28;20439;-75
2021/11/13 03:28:09;;;;;;;40.78;5.25;;;12.80;99.90;;;;;;5097502;28;20438;-74
2021/11/13 03:30:36;;;;;;;35.95;4.97;;;12.90;99.90;;;;;;5095711;28;20492;-74
2021/11/13 03:33:02;;;;;;;43.33;5.53;;;13.00;99.90;;;;;;5100059;28;20473;-74
2021/11/13 03:35:28;;;;;;;37.75;4.70;;;13.10;99.90;;;;;;5071775;28;20397;-73
2021/11/13 03:38:00;;;;;;;37.00;4.70;;;13.20;99.90;;;;;;5100072;28;20411;-74
2021/11/13 03:40:26;;;;;;;36.42;4.95;;;13.20;99.90;;;;;;5085388;28;20515;-73
2021/11/13 03:42:52;;;;;;;27.42;4.40;;;13.20;99.90;;;;;;5074246;28;20838;-74
2021/11/13 03:45:18;;;;;;;22.42;3.67;;;13.20;99.90;;;;;;5101337;28;20448;-74
2021/11/13 03:47:44;;;;;;;18.55;3.10;;;13.20;99.90;;;;;;5102149;28;20419;-73
2021/11/13 03:50:10;;;;;;;20.13;2.70;;;13.20;99.90;;;;;;5093269;28;20468;-73
2021/11/13 03:52:36;;;;;;;18.50;2.75;;;13.10;99.90;;;;;;5081377;28;20408;-74
2021/11/13 03:55:02;;;;;;;20.35;3.10;;;13.00;99.90;;;;;;5068256;28;21246;-73
2021/11/13 03:57:28;;;;;;;18.73;2.83;;;13.00;99.90;;;;;;5103148;28;20416;-73
2021/11/13 03:59:54;;;;;;;20.53;2.70;;;12.90;99.90;;;;;;5104534;28;20412;-74
2021/11/13 04:02:21;;;;;;;12.75;2.15;;;12.90;99.90;;;;;;5083476;28;20412;-73
2021/11/13 04:04:46;;;;;;;9.80;1.95;;;12.90;99.90;;;;;;5105998;28;20447;-72
2021/11/13 04:07:12;;;;;;;15.60;1.70;;;12.90;99.90;;;;;;5106010;28;20501;-72
2021/11/13 04:09:39;;;;;;;7.80;1.48;;;12.90;99.90;;;;;;5102699;28;21264;-73
2021/11/13 04:12:06;;;;;;;12.40;1.70;;;12.80;99.90;;;;;;5093171;28;20431;-73
2021/11/13 04:14:33;;;;;;;14.35;2.30;;;12.80;99.90;;;;;;5106771;28;20412;-74
2021/11/13 04:16:59;;;;;;;11.85;1.77;;;12.80;99.90;;;;;;5106171;28;20407;-74
2021/11/13 04:19:25;;;;;;;13.82;1.88;;;12.80;99.90;;;;;;5071887;28;20416;-73
2021/11/13 04:21:51;;;;;;;9.13;1.53;;;12.70;99.90;;;;;;5084536;28;20700;-74
2021/11/13 04:24:16;;;;;;;11.90;1.90;;;12.70;99.90;;;;;;5081490;28;20404;-74
2021/11/13 04:26:42;;;;;;;12.25;1.60;;;12.60;99.90;;;;;;5104496;28;20450;-73
2021/11/13 04:29:08;;;;;;;15.00;1.70;;;12.60;99.90;;;;;;5095165;28;20414;-73
2021/11/13 04:31:33;;;;;;;11.57;1.83;;;12.60;99.90;;;;;;5104170;28;21513;-73
2021/11/13 04:34:02;;;;;;;13.30;1.80;;;12.60;99.90;;;;;;5105703;28;21035;-73
2021/11/13 04:36:37;;;;;;;13.23;2.08;;;12.60;99.90;;;;;;5101247;28;20428;-73
2021/11/13 04:39:08;;;;;;;13.65;1.90;;;12.70;99.90;;;;;;5091348;28;20416;-73
2021/11/13 04:41:35;;;;;;;19.25;2.35;;;12.70;99.90;;;;;;5076093;28;20478;-73
2021/11/13 04:44:01;;;;;;;18.73;2.63;;;12.70;99.90;;;;;;5084993;28;20408;-74
2021/11/13 04:46:27;;;;;;;19.00;3.20;;;12.70;99.90;;;;;;5102115;28;20455;-74
2021/11/13 04:48:53;;;;;;;22.40;2.50;;;12.70;99.90;;;;;;5104689;28;20845;-74
2021/11/13 04:51:19;;;;;;;20.08;2.92;;;12.80;99.90;;;;;;5095299;28;21205;-74
2021/11/13 04:53:45;;;;;;;27.98;3.13;;;12.80;99.90;;;;;;5079372;28;21054;-73
2021/11/13 04:56:10;;;;;;;29.90;3.27;;;12.80;99.90;;;;;;5106193;28;20545;-74
2021/11/13 04:58:36;;;;;;;25.02;3.03;;;12.80;99.90;;;;;;5065878;28;20404;-74
2021/11/13 05:01:03;;;;;;;19.27;2.83;;;12.90;99.90;;;;;;5070476;28;20438;-74
2021/11/13 05:03:29;;;;;;;22.85;3.20;;;12.90;99.90;;;;;;5087995;28;20400;-73
2021/11/13 05:05:56;;;;;;;30.30;3.20;;;13.00;99.90;;;;;;5085513;28;20889;-74
2021/11/13 05:08:24;;;;;;;27.38;3.10;;;13.00;99.90;;;;;;5102287;28;20400;-74
2021/11/13 05:10:50;;;;;;;30.03;3.00;;;13.00;99.90;;;;;;5102589;28;20407;-74
2021/11/13 05:13:17;;;;;;;30.92;3.25;;;13.00;99.90;;;;;;5066340;28;20404;-73
2021/11/13 05:15:43;;;;;;;24.65;3.60;;;13.10;99.90;;;;;;5097340;28;20404;-74
2021/11/13 05:18:09;;;;;;;31.25;3.60;;;13.10;99.90;;;;;;5074218;28;20927;-73
2021/11/13 05:20:35;;;;;;;27.63;3.50;;;13.10;99.90;;;;;;5084261;28;20414;-74
2021/11/13 05:23:00;;;;;;;33.08;3.88;;;13.10;99.90;;;;;;5084735;28;20415;-74
2021/11/13 05:25:26;;;;;;;26.77;3.27;;;13.10;99.90;;;;;;5104548;28;20416;-75
2021/11/13 05:27:52;;;;;;;30.77;3.93;;;13.10;99.90;;;;;;5083630;28;20491;-74
2021/11/13 05:30:20;;;;;;;31.58;3.80;;;13.10;99.90;;;;;;5084563;28;20457;-74
2021/11/13 05:32:47;;;;;;;26.40;4.10;;;13.20;99.90;;;;;;5078815;28;20505;-78
2021/11/13 05:35:13;;;;;;;26.38;3.92;;;13.20;99.90;;;;;;5103925;28;21253;-73
2021/11/13 05:37:39;;;;;;;29.35;4.13;;;13.20;99.90;;;;;;5099707;28;20422;-74
2021/11/13 05:40:07;;;;;;;31.40;3.97;;;13.20;99.90;;;;;;5084061;28;20443;-75
2021/11/13 05:42:34;;;;;;;29.13;4.00;;;13.20;99.90;;;;;;5086692;28;20491;-75
2021/11/13 05:45:01;;;;;;;30.50;3.97;;;13.20;99.90;;;;;;5086637;28;20507;-75
2021/11/13 05:47:27;;;;;;;31.10;4.30;;;13.30;99.90;;;;;;5099669;28;20534;-74
2021/11/13 05:49:53;;;;;;;28.60;3.90;;;13.30;99.90;;;;;;5101434;28;20455;-74
2021/11/13 05:52:18;;;;;;;24.90;3.80;;;13.30;99.90;;;;;;5081285;28;20740;-74
2021/11/13 05:54:44;;;;;;;28.10;4.40;;;13.30;99.90;;;;;;5102124;28;20453;-74
2021/11/13 05:57:11;;;;;;;28.67;4.13;;;13.30;99.90;;;;;;5084724;28;20499;-74
2021/11/13 05:59:37;;;;;;;27.33;3.90;;;13.30;99.90;;;;;;5102966;28;20488;-74
2021/11/13 06:02:03;;;;;;;27.77;4.55;;;13.40;99.90;;;;;;5083813;28;20554;-74
2021/11/13 06:04:29;;;;;;;28.30;4.43;;;13.40;99.90;;;;;;5081007;28;20949;-72
2021/11/13 06:06:54;;;;;;;22.98;3.63;;;13.40;99.90;;;;;;5103210;28;20419;-74
2021/11/13 06:09:20;;;;;;;18.73;3.80;;;13.30;99.90;;;;;;5085482;28;20408;-73
2021/11/13 06:11:45;;;;;;;26.70;4.50;;;13.30;99.90;;;;;;5103813;28;20415;-74
2021/11/13 06:14:11;;;;;;;27.58;4.13;;;13.30;99.90;;;;;;5103465;28;20469;-74
2021/11/13 06:16:37;;;;;;;27.42;4.15;;;13.30;99.90;;;;;;5103200;28;21260;-74
2021/11/13 06:19:02;;;;;;;23.70;4.60;;;13.40;99.90;;;;;;5098982;28;20406;-74
2021/11/13 06:21:28;;;;;;;23.47;4.50;;;13.40;99.90;;;;;;5100376;28;20434;-73
2021/11/13 06:23:53;;;;;;;22.35;3.97;;;13.40;99.90;;;;;;5072051;28;20409;-73
2021/11/13 06:26:19;;;;;;;25.63;4.15;;;13.40;99.90;;;;;;5094717;28;20470;-75
2021/11/13 06:28:45;;;;;;;24.63;4.03;;;13.40;99.90;;;;;;5101436;28;20907;-77
2021/11/13 06:31:12;;;;;;;27.05;4.68;;;13.40;99.90;;;;;;5097776;28;20392;-75
2021/11/13 06:33:38;;;;;;;23.23;4.33;;;13.40;99.90;;;;;;5081448;28;20446;-74
2021/11/13 06:36:04;;;;;;;21.45;4.00;;;13.40;99.90;;;;;;5098270;28;20429;-75
2021/11/13 06:38:30;;;;;;;26.35;3.80;;;13.40;99.90;;;;;;5099428;28;20416;-73
2021/11/13 06:40:56;;;;;;;22.70;4.00;;;13.40;99.90;;;;;;5102025;28;21273;-74
2021/11/13 06:43:21;;;;;;;19.02;3.80;;;13.40;99.90;;;;;;5081051;28;20410;-73
2021/11/13 06:45:48;;;;;;;18.10;4.03;;;13.40;99.90;;;;;;5098001;28;20420;-76
2021/11/13 06:48:14;;;;;;;22.40;3.70;;;13.40;99.90;;;;;;5086008;28;20405;-74
2021/11/13 06:50:40;;;;;;;17.95;3.60;;;13.40;99.90;;;;;;5101871;28;20407;-75
2021/11/13 06:53:05;;;;;;;15.33;4.20;;;13.40;99.90;;;;;;5074989;28;20902;-78
2021/11/13 06:55:31;;;;;;;19.38;4.50;;;13.40;99.90;;;;;;5095934;28;20405;-75
2021/11/13 06:57:57;;;;;;;18.90;3.63;;;13.40;99.90;;;;;;5094404;28;20409;-75
2021/11/13 07:00:25;;;;;;;12.13;3.10;;;13.40;99.90;;;;;;5101036;28;20407;-76
2021/11/13 07:02:52;;;;;;;13.80;3.00;;;13.40;99.90;;;;;;5098855;28;20417;-75
2021/11/13 07:05:20;;;;;;;13.20;3.10;;;13.40;99.90;;;;;;5096713;28;20418;-74
2021/11/13 07:07:45;;;;;;;19.02;3.25;;;13.40;99.90;;;;;;5094368;28;20420;-73
2021/11/13 07:10:14;;;;;;;14.98;3.60;;;13.40;99.90;;;;;;5092970;28;20418;-74
2021/11/13 07:12:40;;;;;;;13.68;3.13;;;13.40;99.90;;;;;;5075831;28;20413;-76
2021/11/13 07:15:07;;;;;;;15.90;5.00;;;13.40;99.90;;;;;;5097561;28;20896;-75
2021/11/13 07:17:33;;;;;;;13.55;3.60;;;13.40;99.90;;;;;;5092592;28;20412;-74
2021/11/13 07:19:58;;;;;;;14.30;3.97;;;13.40;99.90;;;;;;5097203;28;20408;-76
2021/11/13 07:22:24;;;;;;;19.63;4.17;;;13.40;99.90;;;;;;5074552;28;20449;-75
2021/11/13 07:24:50;;;;;;;17.20;4.45;;;13.40;99.90;;;;;;5080228;28;20419;-74
2021/11/13 07:27:16;;;;;;;14.67;4.27;;;13.40;99.90;;;;;;5098491;28;20911;-75
2021/11/13 07:29:47;;;;;;;17.33;4.97;;;13.40;99.90;;;;;;5094551;28;20406;-74
2021/11/13 07:32:15;;;;;;;17.52;5.78;;;13.30;99.90;;;;;;5092255;28;20961;-73
2021/11/13 07:34:41;;;;;;;16.95;5.40;;;13.30;99.90;;;;;;5084462;28;20410;-74
2021/11/13 07:37:08;;;;;;;20.90;5.60;;;13.30;99.90;;;;;;5101290;28;20632;-74
2021/11/13 07:39:34;;;;;;;23.37;5.83;;;13.30;99.90;;;;;;5066216;28;22982;-76
2021/11/13 07:41:59;;;;;;;23.30;5.50;;;13.30;99.90;;;;;;5102347;28;20496;-76
2021/11/13 07:44:25;;;;;;;16.60;6.30;;;13.30;99.90;;;;;;5087274;28;20400;-75
2021/11/13 07:46:51;;;;;;;20.13;5.07;;;13.30;99.90;;;;;;5102606;28;20457;-76
2021/11/13 07:49:16;;;;;;;14.30;4.90;;;13.30;99.90;;;;;;5086493;28;20788;-75
2021/11/13 07:51:42;;;;;;;14.23;5.47;;;13.30;99.90;;;;;;5088323;28;20411;-75
2021/11/13 07:54:11;;;;;;;19.10;5.03;;;13.30;99.90;;;;;;5103645;28;20411;-75
2021/11/13 07:56:37;;;;;;;17.25;5.10;;;13.30;99.90;;;;;;5102193;28;20413;-74
2021/11/13 07:59:03;;;;;;;17.30;4.97;;;13.30;99.90;;;;;;5104517;28;23073;-74
2021/11/13 08:01:29;;;;;;;17.67;5.43;;;13.30;99.90;;;;;;5086666;28;20462;-74
2021/11/13 08:03:55;;;;;;;16.73;6.32;;;13.30;99.90;;;;;;5081723;28;20417;-74
2021/11/13 08:06:21;;;;;;;20.87;6.37;;;13.30;99.90;;;;;;5101944;28;20444;-74
2021/11/13 08:08:48;;;;;;;21.25;6.53;;;13.30;99.90;;;;;;5104117;28;20479;-74
2021/11/13 08:11:15;;;;;;;21.33;7.15;;;13.40;99.90;;;;;;5087652;28;20400;-74
2021/11/13 08:13:42;;;;;;;17.98;6.32;;;13.50;99.90;;;;;;5106015;28;20957;-73
2021/11/13 08:16:08;;;;;;;18.30;6.45;;;13.60;99.90;;;;;;5083261;28;20419;-74
2021/11/13 08:18:35;;;;;;;18.10;6.60;;;13.70;99.90;;;;;;5105834;28;20420;-74
2021/11/13 08:21:01;;;;;;;17.17;6.70;;;13.80;99.90;;;;;;5102290;28;20406;-74
2021/11/13 08:23:29;;;;;;;17.30;6.47;;;13.80;99.90;;;;;;5104912;28;21206;-74
2021/11/13 08:25:55;;;;;;;15.15;6.18;;;13.80;99.90;;;;;;5084408;28;20412;-76
2021/11/13 08:28:21;;;;;;;21.52;6.40;;;13.90;99.90;;;;;;5085143;28;20400;-76
2021/11/13 08:30:47;;;;;;;16.73;6.40;;;13.90;99.90;;;;;;5082739;28;20904;-76
2021/11/13 08:33:14;;;;;;;21.65;6.40;;;14.00;99.90;;;;;;5098723;28;20405;-75
2021/11/13 08:35:42;;;;;;;12.85;5.72;;;14.00;99.90;;;;;;5098871;28;20521;-76
2021/11/13 08:38:11;;;;;;;21.15;6.18;;;14.10;99.90;;;;;;5062699;28;20766;-76
2021/11/13 08:40:37;;;;;;;16.92;5.88;;;14.10;99.90;;;;;;5102089;28;20904;-76
2021/11/13 08:43:03;;;;;;;20.77;6.20;;;14.20;99.90;;;;;;5076315;28;20913;-75
2021/11/13 08:45:29;;;;;;;17.33;5.83;;;14.20;99.90;;;;;;5078618;28;20420;-76
2021/11/13 08:47:55;;;;;;;20.17;5.90;;;14.30;99.90;;;;;;5098466;28;21352;-74
2021/11/13 08:50:29;;;;;;;24.83;6.07;;;14.40;99.90;;;;;;5079771;28;20503;-75
2021/11/13 08:52:57;;;;;;;26.52;6.47;;;14.60;99.90;;;;;;5079545;28;20484;-76
2021/11/13 08:55:25;;;;;;;21.63;6.60;;;14.70;99.90;;;;;;5096148;28;20461;-76
2021/11/13 08:57:51;;;;;;;19.02;5.47;;;14.80;99.90;;;;;;5096724;28;21004;-74
2021/11/13 09:00:25;;;;;;;25.02;5.20;;;14.80;99.90;;;;;;5102533;28;20471;-76
2021/11/13 09:02:53;;;;;;;16.13;4.70;;;14.90;99.90;;;;;;5098107;28;20483;-75
2021/11/13 09:05:19;;;;;;;20.92;8.40;;;14.90;99.90;;;;;;5074862;28;20779;-75
2021/11/13 09:07:45;;;;;;;18.70;5.70;;;14.90;99.90;;;;;;5099002;28;20420;-75
2021/11/13 09:10:11;;;;;;;15.40;4.55;;;15.00;99.90;;;;;;5103285;28;20412;-73
2021/11/13 09:12:37;;;;;;;15.65;4.93;;;15.10;99.90;;;;;;5086963;28;20426;-73
2021/11/13 09:15:11;;;;;;;18.53;6.10;;;15.30;99.90;;;;;;5102352;28;20408;-75
2021/11/13 09:17:37;;;;;;;28.67;9.70;;;15.40;99.90;;;;;;5081721;28;20412;-75
2021/11/13 09:20:07;;;;;;;28.40;12.02;;;15.40;99.90;;;;;;5098989;28;20397;-75
2021/11/13 09:22:33;;;;;;;39.10;14.00;;;15.50;99.90;;;;;;5100583;27;20445;-75
2021/11/13 09:24:59;;;;;;;32.55;14.18;;;15.50;99.90;;;;;;5082613;28;20465;-75
2021/11/13 09:27:24;;;;;;;36.67;15.33;;;15.40;99.90;;;;;;5098588;28;20839;-74
2021/11/13 09:29:50;;;;;;;39.83;14.90;;;15.40;99.90;;;;;;5099705;28;20443;-74
2021/11/13 09:32:16;;;;;;;22.85;11.95;;;15.70;99.90;;;;;;5101501;28;20447;-73
2021/11/13 09:34:42;;;;;;;24.47;11.23;;;16.50;99.90;;;;;;5096278;28;20448;-80
2021/11/13 09:37:07;;;;;;;18.38;10.38;;;17.70;99.90;;;;;;5082242;28;20450;-75
2021/11/13 09:39:33;;;;;;;25.67;11.15;;;18.90;99.90;;;;;;5102925;28;20423;-74
2021/11/13 09:42:01;;;;;;;21.57;11.37;;;19.50;99.00;;;;;;5097490;28;20414;-74
2021/11/13 09:44:28;;;;;;;19.80;10.97;;;19.50;97.80;;;;;;5095477;28;20416;-75
2021/11/13 09:46:59;;;;;;;20.33;10.00;;;19.30;98.20;;;;;;5096889;28;21254;-74
2021/11/13 09:49:28;;;;;;;17.95;9.20;;;19.90;98.10;;;;;;5097947;28;20450;-73
2021/11/13 09:51:54;;;;;;;16.13;7.80;;;20.80;96.20;;;;;;5099723;28;20217;-74
2021/11/13 09:54:20;;;;;;;11.77;6.75;;;20.80;98.30;;;;;;5096307;28;20435;-77
2021/11/13 09:56:45;;;;;;;12.38;5.30;;;22.20;93.00;;;;;;5096960;28;20971;-81
2021/11/13 09:59:11;;;;;;;11.60;6.37;;;23.30;88.30;;;;;;5093434;28;20410;-79
2021/11/13 10:01:37;;;;;;;13.87;6.13;;;23.50;84.90;;;;;;5096711;28;20410;-78
2021/11/13 10:04:03;;;;;;;11.00;5.32;;;23.60;84.30;;;;;;5096660;28;20489;-73
2021/11/13 10:06:28;;;;;;;12.85;5.30;;;23.30;80.90;;;;;;5096497;28;20441;-78
2021/11/13 10:08:54;;;;;;;10.27;5.17;;;22.80;81.70;;;;;;5095296;28;20413;-75
2021/11/13 10:11:23;;;;;;;11.90;5.40;;;22.20;83.00;;;;;;5097323;28;20416;-77
2021/11/13 10:13:59;;;;;;;13.27;5.85;;;21.70;86.60;;;;;;5091120;28;20494;-77
2021/11/13 10:16:38;;;;;;;10.40;5.20;;;21.10;89.80;;;;;;5101365;28;20413;-75
2021/11/13 10:19:07;;;;;;;10.15;5.50;;;20.90;90.90;;;;;;5100074;28;20413;-77
2021/11/13 10:21:35;;;;;;;9.98;4.95;;;20.80;90.40;;;;;;5095187;28;20414;-75
2021/11/13 10:24:10;;;;;;;6.38;4.70;;;20.60;91.10;;;;;;5096703;28;20531;-74
2021/11/13 10:26:45;;;;;;;8.40;5.10;;;20.40;91.20;;;;;;5086293;28;20424;-74
2021/11/13 10:29:36;;;;;;;7.65;4.95;;;20.00;91.70;;;;;;5094387;28;21021;-80
2021/11/13 10:32:11;;;;;;;11.73;5.55;;;19.70;92.90;;;;;;5078386;28;20410;-78
2021/11/13 10:34:44;;;;;;;17.42;7.93;;;19.50;93.50;;;;;;5082153;28;20416;-75
2021/11/13 10:37:31;;;;;;;11.50;5.40;;;19.20;93.80;;;;;;5098267;28;20415;-78
2021/11/13 10:40:01;;;;;;;7.47;3.92;;;19.10;94.90;;;;;;5096303;28;20775;-77
2021/11/13 10:42:28;;;;;;;6.00;3.30;;;19.50;95.10;;;;;;5094290;28;20433;-79
2021/11/13 10:45:01;;;;;;;6.18;2.97;;;20.10;94.40;;;;;;5098586;28;20978;-77
2021/11/13 10:47:36;;;;;;;6.10;2.10;;;21.00;92.40;;;;;;5094202;28;20421;-75
2021/11/13 10:50:19;;;;;;;6.13;2.00;;;21.90;90.20;;;;;;5097284;28;20890;-76
2021/11/13 10:53:07;;;;;;;5.15;1.90;;;22.00;87.10;;;;;;5077650;28;20411;-76
2021/11/13 10:55:34;;;;;;;6.07;1.83;;;21.60;86.60;;;;;;5068903;28;20402;-77
2021/11/13 10:58:26;;;;;;;6.18;2.30;;;21.10;87.90;;;;;;5077636;28;20400;-78
2021/11/13 11:00:51;;;;;;;8.00;2.05;;;20.60;90.90;;;;;;5071005;28;20794;-78
2021/11/13 11:03:17;;;;;;;6.03;2.20;;;20.40;91.60;;;;;;5102516;28;20400;-76
2021/11/13 11:05:48;;;;;;;6.90;2.50;;;20.40;91.10;;;;;;5094987;28;20413;-80
2021/11/13 11:08:29;;;;;;;8.88;2.80;;;20.30;91.50;;;;;;5060984;28;20416;-78
2021/11/13 11:10:56;;;;;;;9.75;3.10;;;20.10;91.20;;;;;;5095985;28;20409;-76
2021/11/13 11:13:54;;;;;;;9.43;2.80;;;20.00;92.20;;;;;;5073028;28;20410;-77
2021/11/13 11:16:32;;;;;;;9.02;3.40;;;19.80;92.00;;;;;;5088850;28;20431;-77
2021/11/13 11:19:05;;;;;;;10.85;3.67;;;19.60;92.70;;;;;;5076752;28;20420;-76
2021/11/13 11:21:37;;;;;;;9.68;3.53;;;19.50;93.60;;;;;;5099393;28;20420;-79
2021/11/13 11:24:15;;;;;;;9.55;3.70;;;19.40;94.00;;;;;;5093314;28;20782;-77
2021/11/13 11:26:43;;;;;;;11.25;3.55;;;19.20;93.70;;;;;;5096135;28;20417;-75
2021/11/13 11:29:09;;;;;;;9.90;3.90;;;19.00;94.30;;;;;;5099310;28;20443;-76
2021/11/13 11:31:41;;;;;;;9.75;3.67;;;18.80;94.70;;;;;;5092888;28;20521;-76
2021/11/13 11:34:18;;;;;;;9.77;3.00;;;18.80;95.90;;;;;;5094262;28;20416;-79
2021/11/13 11:36:43;;;;;;;7.88;2.30;;;19.50;96.00;;;;;;5085635;28;20443;-77
2021/11/13 11:39:09;;;;;;;7.60;3.00;;;20.60;93.30;;;;;;5093231;28;20439;-77
2021/11/13 11:41:35;;;;;;;6.45;2.28;;;21.50;91.00;;;;;;5077540;28;20769;-79
2021/11/13 11:44:01;;;;;;;5.97;2.00;;;22.20;88.50;;;;;;5103717;28;20532;-76
2021/11/13 11:46:28;;;;;;;4.70;1.83;;;22.70;87.60;;;;;;5101209;28;20416;-76
2021/11/13 11:48:56;;;;;;;8.02;1.98;;;23.40;83.70;;;;;;5094366;28;20473;-74
2021/11/13 11:51:22;;;;;;;4.57;2.00;;;23.90;78.60;;;;;;5102668;28;20413;-75
2021/11/13 11:53:48;;;;;;;6.25;1.40;;;24.00;78.10;;;;;;5083219;28;20409;-74
2021/11/13 11:56:14;;;;;;;3.22;1.13;;;24.20;76.40;;;;;;5097300;28;20476;-74
2021/11/13 11:58:41;;;;;;;4.00;1.13;;;23.90;74.80;;;;;;5100115;28;20420;-77
2021/11/13 12:01:22;;;;;;;5.32;1.00;;;23.50;75.80;;;;;;5078929;28;20423;-75
2021/11/13 12:03:48;;;;;;;4.25;1.38;;;23.00;77.60;;;;;;5095067;28;20438;-75
2021/11/13 12:06:14;;;;;;;5.05;1.40;;;22.30;80.20;;;;;;5098630;28;21162;-72
2021/11/13 12:08:39;;;;;;;4.67;1.50;;;21.80;82.30;;;;;;5102062;28;20408;-76
2021/11/13 12:11:26;;;;;;;4.77;1.37;;;21.30;84.60;;;;;;5078444;28;20764;-77
2021/11/13 12:13:52;;;;;;;4.30;1.60;;;20.80;86.20;;;;;;5081040;28;20412;-77
2021/11/13 12:16:23;;;;;;;9.38;2.08;;;20.40;87.40;;;;;;5097668;28;20488;-75
2021/11/13 12:18:49;;;;;;;6.68;1.90;;;20.10;90.20;;;;;;5092908;28;20414;-75
2021/11/13 12:21:16;;;;;;;6.43;1.43;;;19.90;90.80;;;;;;5094576;28;20495;-75
2021/11/13 12:23:44;;;;;;;5.20;2.03;;;19.70;91.10;;;;;;5101797;28;20415;-78
2021/11/13 12:26:23;;;;;;;8.02;2.17;;;19.50;91.70;;;;;;5103285;28;20415;-77
2021/11/13 12:28:53;;;;;;;6.75;2.47;;;19.40;92.30;;;;;;5103226;28;20477;-76
2021/11/13 12:31:22;;;;;;;7.70;2.25;;;19.30;92.80;;;;;;5098669;28;20443;-76
2021/11/13 12:33:49;;;;;;;6.35;2.00;;;19.20;92.70;;;;;;5101909;28;20506;-75
2021/11/13 12:36:18;;;;;;;6.25;1.50;;;19.00;93.00;;;;;;5079167;28;20414;-76
2021/11/13 12:38:55;;;;;;;6.60;1.30;;;18.90;93.40;;;;;;5096229;28;20816;-78